Time;durP1;ratioP1;P1;durP2;ratioP2;P2;SDS_P1;SDS_P2;PMS_P1;PMS_P2;Temp;Humidity;BMP_temperature;BMP_pressure;BME280_temperature;BME280_humidity;BME280_pressure;Samples;Min_cycle;Max_cycle;Signal;HPM_P1;HPM_P2
2022/12/01 00:02:22;;;;;;;12.55;6.03;;;5.30;67.10;;;;;;5113101;28;20415;-61
2022/12/01 00:04:49;;;;;;;10.32;6.13;;;5.40;76.30;;;;;;5113289;28;20436;-59
2022/12/01 00:07:18;;;;;;;11.32;6.55;;;5.40;69.70;;;;;;5111815;28;20416;-61
2022/12/01 00:12:31;;;;;;;13.23;6.72;;;5.30;63.70;;;;;;5113221;28;20699;-61
2022/12/01 00:14:59;;;;;;;10.35;5.90;;;5.10;82.80;;;;;;5114575;28;20819;-61
2022/12/01 00:17:27;;;;;;;12.35;6.40;;;5.20;84.90;;;;;;5113185;28;20440;-59
2022/12/01 00:19:55;;;;;;;11.73;6.20;;;5.30;82.80;;;;;;5114161;28;20890;-61
2022/12/01 00:22:21;;;;;;;11.10;5.90;;;5.30;90.10;;;;;;5114312;28;20412;-59
2022/12/01 00:24:48;;;;;;;13.55;6.55;;;5.40;80.40;;;;;;5114072;28;20446;-59
2022/12/01 00:27:15;;;;;;;11.55;5.90;;;5.40;83.80;;;;;;5112148;28;20471;-60
2022/12/01 00:29:43;;;;;;;12.02;6.65;;;5.50;81.50;;;;;;5111186;28;20877;-60
2022/12/01 00:32:10;;;;;;;11.68;6.57;;;5.50;76.50;;;;;;5094314;28;20476;-60
2022/12/01 00:34:37;;;;;;;11.45;6.28;;;5.50;74.80;;;;;;5094282;28;20421;-59
2022/12/01 00:37:04;;;;;;;10.85;6.63;;;5.50;60.00;;;;;;5094031;28;20422;-60
2022/12/01 00:39:31;;;;;;;12.45;6.70;;;5.60;58.90;;;;;;5103643;28;20500;-60
2022/12/01 00:41:58;;;;;;;13.60;7.23;;;5.60;51.50;;;;;;5115029;28;20888;-60
2022/12/01 00:44:25;;;;;;;12.40;7.00;;;5.70;42.10;;;;;;5114030;28;20971;-60
2022/12/01 00:46:53;;;;;;;12.50;6.82;;;5.50;37.40;;;;;;5114939;28;20499;-62
2022/12/01 00:49:20;;;;;;;10.73;6.83;;;5.40;46.00;;;;;;5115074;28;20430;-59
2022/12/01 00:51:46;;;;;;;13.00;6.82;;;5.30;62.10;;;;;;5115439;28;20419;-60
2022/12/01 00:54:13;;;;;;;11.15;7.50;;;5.30;92.40;;;;;;5115042;28;20416;-59
2022/12/01 00:56:40;;;;;;;11.38;6.60;;;5.30;63.50;;;;;;5115607;28;20840;-60
2022/12/01 00:59:07;;;;;;;12.10;6.22;;;5.30;90.10;;;;;;5115577;28;20424;-59
2022/12/01 01:01:33;;;;;;;12.13;6.50;;;5.50;60.10;;;;;;5114995;28;20420;-60
2022/12/01 01:04:02;;;;;;;10.60;6.35;;;5.40;39.50;;;;;;5115207;28;20697;-60
2022/12/01 01:06:29;;;;;;;13.23;6.43;;;5.40;74.20;;;;;;5114658;28;20412;-59
2022/12/01 01:08:55;;;;;;;13.93;7.80;;;5.30;79.40;;;;;;5114480;28;20730;-60
2022/12/01 01:11:22;;;;;;;13.65;6.57;;;5.30;72.90;;;;;;5115231;28;20418;-59
2022/12/01 01:13:49;;;;;;;12.00;6.78;;;5.40;75.60;;;;;;5115108;28;20854;-59
2022/12/01 01:16:18;;;;;;;11.53;6.83;;;5.30;52.00;;;;;;5114899;28;20418;-60
2022/12/01 01:18:45;;;;;;;12.65;6.80;;;5.20;88.80;;;;;;5114970;28;20432;-59
2022/12/01 01:21:16;;;;;;;11.93;6.97;;;5.30;71.10;;;;;;5115233;28;20831;-60
2022/12/01 01:23:43;;;;;;;10.43;5.33;;;5.20;70.40;;;;;;5114164;28;20428;-59
2022/12/01 01:26:13;;;;;;;10.93;5.65;;;5.20;59.40;;;;;;5114680;28;20416;-60
2022/12/01 01:28:40;;;;;;;9.73;5.63;;;5.20;68.90;;;;;;5115085;28;20922;-60
2022/12/01 01:31:08;;;;;;;11.73;6.13;;;5.40;48.00;;;;;;5114618;28;20420;-60
2022/12/01 01:33:38;;;;;;;13.30;7.07;;;5.50;31.80;;;;;;5114962;28;20434;-59
2022/12/01 01:36:06;;;;;;;11.88;6.10;;;5.40;31.00;;;;;;5114701;28;20423;-59
2022/12/01 01:38:35;;;;;;;11.13;6.47;;;5.30;19.70;;;;;;5114839;28;20424;-60
2022/12/01 01:41:03;;;;;;;11.73;6.13;;;5.30;48.80;;;;;;5117962;28;20416;-59
2022/12/01 01:43:42;;;;;;;12.15;6.45;;;5.30;29.40;;;;;;5118447;28;20424;-60
2022/12/01 01:46:11;;;;;;;10.75;5.68;;;5.30;35.30;;;;;;5118769;28;20422;-61
2022/12/01 01:48:39;;;;;;;12.20;6.40;;;5.50;33.60;;;;;;5118349;28;20430;-59
2022/12/01 01:51:07;;;;;;;10.25;6.00;;;5.50;5.40;;;;;;5118715;28;20707;-59
2022/12/01 01:53:35;;;;;;;10.70;6.00;;;5.50;14.80;;;;;;5118612;28;20514;-60
2022/12/01 01:56:03;;;;;;;9.80;4.97;;;5.30;1.00;;;;;;5118394;28;20423;-60
2022/12/01 01:58:32;;;;;;;11.10;5.60;;;5.30;25.10;;;;;;5118922;28;20420;-60
2022/12/01 02:00:59;;;;;;;10.77;5.80;;;5.20;13.10;;;;;;5117622;28;20804;-59
2022/12/01 02:03:27;;;;;;;9.32;5.55;;;5.10;21.50;;;;;;5118095;28;20424;-59
2022/12/01 02:05:55;;;;;;;11.98;5.10;;;5.10;30.20;;;;;;5118308;28;20428;-59
2022/12/01 02:08:22;;;;;;;11.57;5.80;;;5.20;15.20;;;;;;5118247;28;20431;-60
2022/12/01 02:11:04;;;;;;;10.88;5.78;;;5.20;13.90;;;;;;5118311;28;20416;-60
2022/12/01 02:13:38;;;;;;;9.75;5.68;;;5.10;17.30;;;;;;5118291;28;20719;-60
2022/12/01 02:16:12;;;;;;;11.48;5.75;;;5.10;34.70;;;;;;5118623;28;20412;-60
2022/12/01 02:18:49;;;;;;;10.07;5.97;;;5.20;31.80;;;;;;5117791;28;20430;-59
2022/12/01 02:21:38;;;;;;;9.00;5.38;;;5.10;35.10;;;;;;5117940;28;20416;-59
2022/12/01 02:24:44;;;;;;;10.40;5.70;;;5.20;24.90;;;;;;5113678;28;20859;-59
2022/12/01 02:27:25;;;;;;;9.20;5.55;;;5.20;8.40;;;;;;5104895;28;20428;-59
2022/12/01 02:30:07;;;;;;;8.95;5.72;;;5.10;18.40;;;;;;5117504;28;20416;-60
2022/12/01 02:32:56;;;;;;;10.38;5.65;;;5.20;36.90;;;;;;5117908;28;20423;-59
2022/12/01 02:35:31;;;;;;;10.40;5.78;;;5.30;6.90;;;;;;5117157;28;20414;-60
2022/12/01 02:38:09;;;;;;;11.00;6.30;;;5.00;2.60;;;;;;5117306;28;20424;-59
2022/12/01 02:40:41;;;;;;;10.05;5.60;;;5.00;34.00;;;;;;5118004;28;20836;-60
2022/12/01 02:43:13;;;;;;;10.45;5.40;;;5.10;39.10;;;;;;5117790;28;20424;-60
2022/12/01 02:45:45;;;;;;;10.02;4.95;;;5.20;40.00;;;;;;5117493;28;20434;-60
2022/12/01 02:48:18;;;;;;;8.50;4.95;;;5.40;20.40;;;;;;5117600;28;20514;-59
2022/12/01 02:50:46;;;;;;;10.80;5.97;;;5.40;1.00;;;;;;5115926;28;20863;-60
2022/12/01 02:53:18;;;;;;;9.63;5.47;;;5.40;1.10;;;;;;5117303;28;20426;-59
2022/12/01 02:55:50;;;;;;;9.18;5.22;;;5.30;1.00;;;;;;5117205;28;20481;-59
2022/12/01 02:58:16;;;;;;;9.95;4.95;;;5.20;11.60;;;;;;5117295;28;20523;-59
2022/12/01 03:00:56;;;;;;;7.68;4.20;;;5.20;9.70;;;;;;5116235;28;20430;-59
2022/12/01 03:03:39;;;;;;;10.73;5.82;;;5.10;14.00;;;;;;5117298;28;20420;-60
2022/12/01 03:06:13;;;;;;;10.57;4.47;;;5.20;22.60;;;;;;5117105;28;20537;-60
2022/12/01 03:08:48;;;;;;;10.63;5.47;;;5.20;3.90;;;;;;5117210;28;20428;-59
2022/12/01 03:11:26;;;;;;;9.95;5.38;;;5.10;11.30;;;;;;5117081;28;20420;-59
2022/12/01 03:14:06;;;;;;;12.05;6.30;;;5.00;13.80;;;;;;5116885;28;20424;-59
2022/12/01 03:16:42;;;;;;;10.25;5.25;;;5.00;17.60;;;;;;5116376;28;20404;-60
2022/12/01 03:19:15;;;;;;;10.30;5.65;;;5.00;32.80;;;;;;5116047;28;20447;-60
2022/12/01 03:21:47;;;;;;;9.23;5.45;;;5.10;20.60;;;;;;5117032;28;20426;-60
2022/12/01 03:24:16;;;;;;;10.23;6.43;;;5.10;4.10;;;;;;5116755;28;20847;-59
2022/12/01 03:26:47;;;;;;;10.13;5.57;;;4.90;2.20;;;;;;5116730;28;20511;-59
2022/12/01 03:29:18;;;;;;;8.93;5.78;;;4.80;22.90;;;;;;5116802;28;20428;-59
2022/12/01 03:31:48;;;;;;;10.52;5.25;;;4.70;22.10;;;;;;5116277;28;20423;-60
2022/12/01 03:34:22;;;;;;;9.30;4.82;;;4.60;37.10;;;;;;5116356;28;20431;-60
2022/12/01 03:36:55;;;;;;;9.35;4.97;;;4.70;50.30;;;;;;5116702;28;20489;-59
2022/12/01 03:39:26;;;;;;;10.97;5.53;;;4.70;31.20;;;;;;5116660;28;20888;-60
2022/12/01 03:41:58;;;;;;;9.52;4.70;;;4.60;24.50;;;;;;5116677;28;20696;-60
2022/12/01 03:44:29;;;;;;;11.73;5.32;;;4.50;34.60;;;;;;5116415;28;20572;-60
2022/12/01 03:47:00;;;;;;;10.10;5.53;;;4.60;44.40;;;;;;5115973;28;20448;-59
2022/12/01 03:49:28;;;;;;;11.80;5.22;;;4.80;37.20;;;;;;5115658;28;20416;-60
2022/12/01 03:52:07;;;;;;;9.25;5.40;;;4.80;7.90;;;;;;5116245;28;20493;-59
2022/12/01 03:54:44;;;;;;;10.80;5.60;;;4.70;12.80;;;;;;5116540;28;20493;-59
2022/12/01 03:57:17;;;;;;;8.85;3.72;;;4.70;28.50;;;;;;5116319;28;20409;-59
2022/12/01 03:59:45;;;;;;;9.13;4.90;;;4.80;6.60;;;;;;5115233;28;20519;-60
2022/12/01 04:02:12;;;;;;;12.00;6.47;;;4.70;22.80;;;;;;5115537;28;20506;-59
2022/12/01 04:04:40;;;;;;;11.80;5.60;;;4.70;33.20;;;;;;5116084;28;20434;-59
2022/12/01 04:07:12;;;;;;;11.65;6.47;;;4.80;28.50;;;;;;5116026;28;20842;-59
2022/12/01 04:09:39;;;;;;;10.15;4.97;;;4.80;25.80;;;;;;5115803;28;20430;-59
2022/12/01 04:14:50;;;;;;;10.63;5.85;;;4.80;23.50;;;;;;5115475;28;20400;-60
2022/12/01 04:17:17;;;;;;;10.38;5.82;;;4.70;24.40;;;;;;5115861;28;20416;-59
2022/12/01 04:19:45;;;;;;;9.43;5.50;;;4.70;29.10;;;;;;5116012;28;20914;-59
2022/12/01 04:22:12;;;;;;;10.65;5.28;;;4.90;26.10;;;;;;5115564;28;20420;-60
2022/12/01 04:24:39;;;;;;;11.90;6.68;;;5.00;5.30;;;;;;5115705;28;20866;-59
2022/12/01 04:27:06;;;;;;;9.05;5.10;;;4.90;1.00;;;;;;5115073;28;20416;-60
2022/12/01 04:29:32;;;;;;;8.70;5.72;;;4.80;1.00;;;;;;5115821;28;20831;-59
2022/12/01 04:31:59;;;;;;;11.02;6.28;;;4.70;25.40;;;;;;5114328;28;20416;-59
2022/12/01 04:34:26;;;;;;;11.00;5.60;;;4.80;25.80;;;;;;5115291;28;20420;-59
2022/12/01 04:36:54;;;;;;;9.37;4.80;;;4.80;22.40;;;;;;5114758;28;20451;-60
2022/12/01 04:39:21;;;;;;;10.07;6.30;;;4.90;22.30;;;;;;5114300;28;20522;-60
2022/12/01 04:41:48;;;;;;;11.48;6.32;;;4.80;2.20;;;;;;5114923;28;20427;-59
2022/12/01 04:44:15;;;;;;;10.13;5.72;;;4.80;20.40;;;;;;5114682;28;20424;-59
2022/12/01 04:46:44;;;;;;;10.93;5.63;;;4.80;22.50;;;;;;5112629;28;20730;-59
2022/12/01 04:49:11;;;;;;;10.00;6.15;;;4.70;13.40;;;;;;5113242;28;20723;-59
2022/12/01 04:51:38;;;;;;;9.45;5.28;;;4.70;10.10;;;;;;5113652;28;20768;-60
2022/12/01 04:54:06;;;;;;;9.60;5.68;;;4.70;26.60;;;;;;5114370;28;20530;-59
2022/12/01 04:56:33;;;;;;;8.73;5.38;;;4.80;19.00;;;;;;5114763;28;20419;-59
2022/12/01 04:59:00;;;;;;;11.55;5.45;;;4.90;15.80;;;;;;5114907;28;20752;-60
2022/12/01 05:01:27;;;;;;;10.37;5.50;;;5.00;3.90;;;;;;5114732;28;20511;-59
2022/12/01 05:03:54;;;;;;;9.40;5.13;;;5.00;5.30;;;;;;5115001;28;20671;-59
2022/12/01 05:06:22;;;;;;;8.75;5.00;;;5.10;1.00;;;;;;5115015;28;20428;-60
2022/12/01 05:08:50;;;;;;;10.25;5.30;;;5.10;1.00;;;;;;5115629;28;20419;-59
2022/12/01 05:11:19;;;;;;;10.20;5.50;;;5.10;1.00;;;;;;5114811;28;20514;-60
2022/12/01 05:13:47;;;;;;;11.00;5.83;;;5.00;1.00;;;;;;5117170;28;20424;-59
2022/12/01 05:16:15;;;;;;;9.02;5.30;;;4.70;1.00;;;;;;5119279;28;20412;-59
2022/12/01 05:18:42;;;;;;;9.93;5.78;;;4.70;27.70;;;;;;5117865;28;20427;-60
2022/12/01 05:21:09;;;;;;;11.60;5.55;;;4.80;15.30;;;;;;5117976;28;20473;-60
2022/12/01 05:23:38;;;;;;;10.00;5.95;;;4.90;11.50;;;;;;5117317;28;20408;-59
2022/12/01 05:26:06;;;;;;;9.32;5.93;;;4.80;1.00;;;;;;5116558;28;20427;-60
2022/12/01 05:28:35;;;;;;;11.30;6.07;;;4.50;7.90;;;;;;5116720;28;20453;-60
2022/12/01 05:31:02;;;;;;;9.13;5.40;;;4.40;20.40;;;;;;5115816;28;20455;-59
2022/12/01 05:33:30;;;;;;;10.82;6.22;;;4.40;40.80;;;;;;5118458;28;20424;-59
2022/12/01 05:35:56;;;;;;;10.43;5.72;;;4.50;53.70;;;;;;5118733;28;20444;-59
2022/12/01 05:38:23;;;;;;;9.57;5.00;;;4.60;28.20;;;;;;5118686;28;20427;-59
2022/12/01 05:40:51;;;;;;;11.27;6.30;;;4.70;34.00;;;;;;5118193;28;20434;-59
2022/12/01 05:43:18;;;;;;;13.67;6.63;;;4.70;4.10;;;;;;5118828;28;20510;-59
2022/12/01 05:45:48;;;;;;;11.03;6.60;;;4.70;3.60;;;;;;5118637;28;20892;-59
2022/12/01 05:48:15;;;;;;;12.20;7.43;;;4.70;20.40;;;;;;5117368;28;20435;-59
2022/12/01 05:50:42;;;;;;;11.90;6.57;;;4.70;20.60;;;;;;5118451;28;20420;-60
2022/12/01 05:53:11;;;;;;;10.35;6.28;;;4.80;15.40;;;;;;5118442;28;20723;-59
2022/12/01 05:55:38;;;;;;;9.52;4.68;;;4.90;21.10;;;;;;5118518;28;20412;-59
2022/12/01 05:58:05;;;;;;;12.63;6.20;;;5.10;60.60;;;;;;5118497;28;20840;-61
2022/12/01 06:00:32;;;;;;;13.65;7.60;;;5.30;1.00;;;;;;5117824;28;20494;-60
2022/12/01 06:03:00;;;;;;;9.70;5.60;;;5.30;1.00;;;;;;5117853;28;20446;-60
2022/12/01 06:05:27;;;;;;;10.37;5.90;;;5.20;1.00;;;;;;5116839;28;20424;-61
2022/12/01 06:07:54;;;;;;;11.95;6.97;;;5.20;1.00;;;;;;5117322;28;20426;-61
2022/12/01 06:10:21;;;;;;;14.13;7.72;;;5.20;1.00;;;;;;5117414;28;20551;-60
2022/12/01 06:12:48;;;;;;;11.25;6.78;;;5.10;1.00;;;;;;5116723;28;20450;-61
2022/12/01 06:15:15;;;;;;;10.48;6.80;;;5.00;1.00;;;;;;5116753;28;20507;-60
2022/12/01 06:17:42;;;;;;;13.18;6.78;;;4.90;7.70;;;;;;5117038;28;20416;-60
2022/12/01 06:20:11;;;;;;;12.37;6.63;;;5.00;14.50;;;;;;5117507;28;20431;-60
2022/12/01 06:22:38;;;;;;;10.60;6.22;;;5.10;1.00;;;;;;5116567;28;20458;-60
2022/12/01 06:25:06;;;;;;;13.27;7.68;;;5.10;6.50;;;;;;5114916;28;20419;-60
2022/12/01 06:27:33;;;;;;;13.27;7.32;;;5.20;1.00;;;;;;5115606;28;20858;-60
2022/12/01 06:30:00;;;;;;;13.13;7.00;;;5.00;1.00;;;;;;5116191;28;20503;-60
2022/12/01 06:32:27;;;;;;;11.65;7.85;;;4.90;9.50;;;;;;5116542;28;20432;-60
2022/12/01 06:34:53;;;;;;;11.95;7.10;;;4.70;13.80;;;;;;5116225;28;20459;-60
2022/12/01 06:37:22;;;;;;;14.77;8.90;;;4.60;30.30;;;;;;5116138;28;20454;-60
2022/12/01 06:39:48;;;;;;;15.75;7.82;;;4.60;40.90;;;;;;5111343;28;20437;-60
2022/12/01 06:42:15;;;;;;;12.18;6.65;;;4.60;36.90;;;;;;5110031;28;20422;-60
2022/12/01 06:44:42;;;;;;;12.18;7.80;;;4.60;44.60;;;;;;5103955;28;20437;-60
2022/12/01 06:47:09;;;;;;;12.95;7.65;;;4.50;34.20;;;;;;5098896;28;20422;-60
2022/12/01 06:49:36;;;;;;;14.43;8.00;;;4.30;46.60;;;;;;5094469;28;20425;-61
2022/12/01 06:52:03;;;;;;;13.75;7.03;;;4.30;73.50;;;;;;5104196;28;20414;-60
2022/12/01 06:54:32;;;;;;;12.70;6.85;;;4.30;70.30;;;;;;5116163;28;20921;-60
2022/12/01 06:56:59;;;;;;;10.43;6.32;;;4.30;63.90;;;;;;5108795;28;20717;-60
2022/12/01 06:59:26;;;;;;;11.82;6.75;;;4.40;98.80;;;;;;5097871;28;20434;-60
2022/12/01 07:01:53;;;;;;;13.07;7.20;;;4.50;41.00;;;;;;5112543;28;20442;-60
2022/12/01 07:04:20;;;;;;;11.75;6.85;;;4.60;66.50;;;;;;5112387;28;20543;-60
2022/12/01 07:06:46;;;;;;;10.82;6.32;;;4.70;68.80;;;;;;5110728;28;20727;-60
2022/12/01 07:09:13;;;;;;;14.75;7.57;;;4.70;54.10;;;;;;5113334;28;20515;-60
2022/12/01 07:11:41;;;;;;;12.10;7.30;;;4.80;25.70;;;;;;5106742;28;20429;-60
2022/12/01 07:14:17;;;;;;;12.13;6.45;;;4.80;20.10;;;;;;5091464;28;20528;-60
2022/12/01 07:16:44;;;;;;;13.83;7.63;;;5.00;90.10;;;;;;5101562;28;20504;-60
2022/12/01 07:19:10;;;;;;;12.65;7.65;;;5.00;30.30;;;;;;5114643;28;20426;-60
2022/12/01 07:21:37;;;;;;;10.48;6.20;;;5.00;28.20;;;;;;5109279;28;20428;-60
2022/12/01 07:24:05;;;;;;;12.30;7.32;;;5.20;53.50;;;;;;5094034;28;20426;-60
2022/12/01 07:26:31;;;;;;;13.05;6.55;;;4.90;3.40;;;;;;5097964;28;20872;-60
2022/12/01 07:29:00;;;;;;;13.23;6.93;;;4.60;17.40;;;;;;5114495;28;20420;-61
2022/12/01 07:31:26;;;;;;;11.30;6.07;;;4.80;82.30;;;;;;5112065;28;20461;-61
2022/12/01 07:33:53;;;;;;;11.85;6.30;;;5.10;98.70;;;;;;5112170;28;20430;-58
2022/12/01 07:36:20;;;;;;;13.17;6.80;;;5.50;35.90;;;;;;5110905;28;20424;-61
2022/12/01 07:38:47;;;;;;;11.77;7.00;;;5.60;3.50;;;;;;5093819;28;20451;-61
2022/12/01 07:41:17;;;;;;;11.32;7.57;;;5.70;1.00;;;;;;5094559;28;20447;-60
2022/12/01 07:43:48;;;;;;;12.52;6.55;;;5.50;1.00;;;;;;5095496;28;20429;-60
2022/12/01 07:46:17;;;;;;;13.65;7.38;;;5.50;18.80;;;;;;5112488;28;20424;-60
2022/12/01 07:48:45;;;;;;;10.45;6.60;;;5.50;1.00;;;;;;5097929;28;20437;-62
2022/12/01 07:51:15;;;;;;;12.13;6.70;;;5.50;1.00;;;;;;5094380;28;20509;-60
2022/12/01 07:53:42;;;;;;;12.68;7.28;;;5.30;1.00;;;;;;5092254;28;20476;-60
2022/12/01 07:56:09;;;;;;;10.27;5.80;;;5.30;2.30;;;;;;5091782;28;20406;-60
2022/12/01 07:58:37;;;;;;;11.82;7.10;;;5.50;30.20;;;;;;5111485;28;20428;-60
2022/12/01 08:01:10;;;;;;;11.80;7.45;;;5.40;1.00;;;;;;5114125;28;20827;-60
2022/12/01 08:03:39;;;;;;;10.43;6.35;;;5.40;1.00;;;;;;5095059;28;20466;-61
2022/12/01 08:06:07;;;;;;;10.63;6.97;;;5.30;2.30;;;;;;5094357;28;20432;-61
2022/12/01 08:08:35;;;;;;;11.40;6.80;;;5.30;5.70;;;;;;5113686;28;20420;-61
2022/12/01 08:11:04;;;;;;;9.70;6.28;;;5.40;2.50;;;;;;5115082;28;20412;-61
2022/12/01 08:13:31;;;;;;;10.48;6.40;;;5.60;28.10;;;;;;5092525;28;20457;-61
2022/12/01 08:15:58;;;;;;;13.07;7.80;;;5.70;9.30;;;;;;5093473;28;20410;-61
2022/12/01 08:18:25;;;;;;;11.10;6.38;;;5.60;1.00;;;;;;5113254;28;20443;-61
2022/12/01 08:20:57;;;;;;;11.70;7.05;;;5.40;1.00;;;;;;5111666;28;20423;-61
2022/12/01 08:23:24;;;;;;;11.23;7.55;;;5.50;22.00;;;;;;5114573;28;20877;-60
2022/12/01 08:25:51;;;;;;;11.75;6.80;;;5.40;1.00;;;;;;5104498;28;20433;-62
2022/12/01 08:28:18;;;;;;;11.38;6.20;;;5.50;20.10;;;;;;5093112;28;20438;-61
2022/12/01 08:30:45;;;;;;;13.15;6.20;;;5.70;1.80;;;;;;5093589;28;20419;-61
2022/12/01 08:33:11;;;;;;;10.68;6.00;;;5.70;1.00;;;;;;5096057;28;20436;-61
2022/12/01 08:35:38;;;;;;;12.45;5.60;;;5.50;1.00;;;;;;5100395;28;20413;-61
2022/12/01 08:38:06;;;;;;;8.85;6.43;;;5.40;1.00;;;;;;5104837;28;20428;-61
2022/12/01 08:40:33;;;;;;;10.30;5.97;;;5.40;11.00;;;;;;5109870;28;20430;-60
2022/12/01 08:43:00;;;;;;;11.75;6.88;;;5.60;4.50;;;;;;5097824;28;20428;-60
2022/12/01 08:45:27;;;;;;;11.15;6.10;;;5.40;1.00;;;;;;5093835;28;20855;-61
2022/12/01 08:47:57;;;;;;;10.80;6.47;;;5.60;20.80;;;;;;5096937;28;20765;-60
2022/12/01 08:50:24;;;;;;;8.23;6.10;;;5.80;7.30;;;;;;5095288;28;20453;-61
2022/12/01 08:52:51;;;;;;;10.65;6.22;;;6.00;1.00;;;;;;5092198;28;20440;-60
2022/12/01 08:55:20;;;;;;;9.50;6.07;;;5.80;1.00;;;;;;5092281;28;20753;-60
2022/12/01 08:57:47;;;;;;;11.43;6.45;;;5.80;1.00;;;;;;5109922;28;20739;-61
2022/12/01 09:00:15;;;;;;;9.75;6.30;;;5.70;1.00;;;;;;5107211;28;20501;-61
2022/12/01 09:02:42;;;;;;;10.77;6.10;;;5.70;1.00;;;;;;5093244;28;20414;-60
2022/12/01 09:05:09;;;;;;;11.60;7.07;;;5.50;1.00;;;;;;5095235;28;20475;-60
2022/12/01 09:07:36;;;;;;;11.85;6.70;;;5.40;1.00;;;;;;5110958;28;20424;-60
2022/12/01 09:10:03;;;;;;;9.70;6.68;;;5.40;1.00;;;;;;5092398;28;20425;-60
2022/12/01 09:12:31;;;;;;;13.45;7.10;;;5.60;7.70;;;;;;5099556;28;20510;-60
2022/12/01 09:14:58;;;;;;;11.80;6.80;;;5.70;1.00;;;;;;5104247;28;20819;-60
2022/12/01 09:17:25;;;;;;;12.73;6.00;;;5.50;1.00;;;;;;5107791;28;20460;-60
2022/12/01 09:19:52;;;;;;;10.55;6.75;;;5.30;1.00;;;;;;5105661;28;20864;-60
2022/12/01 09:22:18;;;;;;;10.00;5.72;;;5.20;1.00;;;;;;5089578;28;20513;-60
2022/12/01 09:24:45;;;;;;;9.90;5.85;;;5.40;34.40;;;;;;5092590;28;20467;-60
2022/12/01 09:27:12;;;;;;;10.68;6.25;;;5.60;1.00;;;;;;5093133;28;20421;-61
2022/12/01 09:29:40;;;;;;;10.05;6.30;;;5.70;1.00;;;;;;5094912;28;20484;-60
2022/12/01 09:32:07;;;;;;;9.75;4.90;;;5.80;1.00;;;;;;5111465;28;20519;-60
2022/12/01 09:34:34;;;;;;;11.40;5.53;;;6.00;1.00;;;;;;5111646;28;20432;-61
2022/12/01 09:37:00;;;;;;;8.93;5.80;;;6.20;1.00;;;;;;5099506;28;20416;-61
2022/12/01 09:39:28;;;;;;;9.55;6.03;;;6.30;1.00;;;;;;5101175;28;20431;-60
2022/12/01 09:41:58;;;;;;;8.68;5.13;;;6.00;1.00;;;;;;5105504;28;20468;-60
2022/12/01 09:44:34;;;;;;;10.80;5.90;;;6.00;1.00;;;;;;5100857;28;20434;-61
2022/12/01 09:47:10;;;;;;;42.92;12.05;;;5.60;1.00;;;;;;5098872;28;20426;-63
2022/12/01 09:49:46;;;;;;;9.97;5.60;;;5.50;1.00;;;;;;5095975;28;20428;-59
2022/12/01 09:52:15;;;;;;;10.40;5.73;;;5.50;8.90;;;;;;5106045;28;20416;-62
2022/12/01 09:54:42;;;;;;;10.23;6.00;;;5.60;10.20;;;;;;5090997;28;20603;-59
2022/12/01 09:57:17;;;;;;;7.75;4.65;;;5.80;1.00;;;;;;5095101;28;20421;-59
2022/12/01 09:59:45;;;;;;;11.20;5.55;;;6.00;1.00;;;;;;5091191;28;20430;-59
2022/12/01 10:02:24;;;;;;;10.65;6.47;;;6.30;1.00;;;;;;5103471;28;20419;-59
2022/12/01 10:04:54;;;;;;;9.60;5.13;;;6.40;1.00;;;;;;5113436;28;20770;-59
2022/12/01 10:07:28;;;;;;;8.95;4.97;;;6.50;1.00;;;;;;5107730;28;20520;-59
2022/12/01 10:09:58;;;;;;;8.93;5.32;;;6.50;1.00;;;;;;5103390;28;20810;-59
2022/12/01 10:12:30;;;;;;;12.50;6.60;;;6.60;1.00;;;;;;5117073;28;20499;-59
2022/12/01 10:15:02;;;;;;;10.00;5.50;;;6.60;1.00;;;;;;5097540;28;20428;-59
2022/12/01 10:17:40;;;;;;;10.35;6.50;;;6.70;1.00;;;;;;5096172;28;20417;-58
2022/12/01 10:20:15;;;;;;;11.60;6.97;;;6.90;1.00;;;;;;5099232;28;20728;-59
2022/12/01 10:23:09;;;;;;;8.90;5.68;;;6.60;1.00;;;;;;5099872;28;20434;-59
2022/12/01 10:25:46;;;;;;;9.63;5.55;;;6.40;1.00;;;;;;5104467;28;20431;-58
2022/12/01 10:28:32;;;;;;;8.30;5.18;;;6.30;1.00;;;;;;5105916;28;20478;-61
2022/12/01 10:31:05;;;;;;;10.95;5.97;;;6.10;1.00;;;;;;5107297;28;20818;-61
2022/12/01 10:33:40;;;;;;;6.82;5.03;;;6.10;1.00;;;;;;5103667;28;20482;-61
2022/12/01 10:36:08;;;;;;;9.60;5.78;;;6.20;1.00;;;;;;5103880;28;20722;-61
2022/12/01 10:38:37;;;;;;;7.93;5.43;;;6.10;1.00;;;;;;5081879;28;20489;-61
2022/12/01 10:41:08;;;;;;;10.02;6.20;;;6.20;1.00;;;;;;5112101;28;20511;-61
2022/12/01 10:43:40;;;;;;;7.78;5.25;;;6.10;1.00;;;;;;5110803;28;20440;-61
2022/12/01 10:46:19;;;;;;;11.85;5.90;;;6.00;1.00;;;;;;5098055;28;20457;-59
2022/12/01 10:48:54;;;;;;;11.17;6.63;;;5.80;1.00;;;;;;5102986;28;20444;-62
2022/12/01 10:51:22;;;;;;;11.55;7.30;;;5.80;1.00;;;;;;5093126;28;20422;-59
2022/12/01 10:53:50;;;;;;;10.18;6.57;;;5.70;1.00;;;;;;5116774;28;20424;-59
2022/12/01 10:56:19;;;;;;;11.13;6.60;;;5.60;1.00;;;;;;5111302;28;20861;-59
2022/12/01 10:58:52;;;;;;;10.25;6.13;;;5.60;1.00;;;;;;5117313;28;20481;-58
2022/12/01 11:01:22;;;;;;;12.23;7.20;;;5.50;10.10;;;;;;5117013;28;20426;-59
2022/12/01 11:03:57;;;;;;;9.65;6.40;;;5.40;8.50;;;;;;5114682;28;20475;-59
2022/12/01 11:06:27;;;;;;;10.45;6.60;;;5.40;4.10;;;;;;5116873;28;20420;-59
2022/12/01 11:08:57;;;;;;;10.63;5.95;;;5.40;11.90;;;;;;5117560;28;20433;-59
2022/12/01 11:11:29;;;;;;;9.23;5.50;;;5.50;7.40;;;;;;5116526;28;20420;-59
2022/12/01 11:13:58;;;;;;;11.38;7.32;;;5.70;5.20;;;;;;5117066;28;20434;-59
2022/12/01 11:16:41;;;;;;;9.95;5.45;;;5.70;1.00;;;;;;5113407;28;20454;-60
2022/12/01 11:19:21;;;;;;;10.13;5.78;;;5.80;1.00;;;;;;5097652;28;20440;-60
2022/12/01 11:21:50;;;;;;;10.20;6.03;;;5.80;1.00;;;;;;5095863;28;20478;-60
2022/12/01 11:24:33;;;;;;;8.60;5.53;;;5.70;1.00;;;;;;5096085;28;20436;-59
2022/12/01 11:27:00;;;;;;;9.45;5.80;;;5.70;1.00;;;;;;5099198;28;20525;-60
2022/12/01 11:29:34;;;;;;;11.65;6.00;;;5.70;1.00;;;;;;5111808;28;20534;-59
2022/12/01 11:32:02;;;;;;;11.25;6.10;;;5.50;1.00;;;;;;5093951;28;20490;-60
2022/12/01 11:34:34;;;;;;;10.90;6.57;;;5.50;1.70;;;;;;5102723;28;20429;-59
2022/12/01 11:37:03;;;;;;;11.80;6.20;;;5.40;1.00;;;;;;5105225;28;20424;-59
2022/12/01 11:39:33;;;;;;;9.82;5.75;;;5.40;17.20;;;;;;5113744;28;20431;-60
2022/12/01 11:42:03;;;;;;;11.05;6.18;;;5.40;16.30;;;;;;5115754;28;20420;-60
2022/12/01 11:44:31;;;;;;;9.43;5.38;;;5.50;23.10;;;;;;5115959;28;20777;-60
2022/12/01 11:47:13;;;;;;;10.18;6.38;;;5.60;9.60;;;;;;5113885;28;20435;-59
2022/12/01 11:49:46;;;;;;;10.13;7.00;;;5.50;1.00;;;;;;5114426;28;20461;-59
2022/12/01 11:52:29;;;;;;;9.85;6.05;;;5.30;16.20;;;;;;5097204;28;20445;-60
2022/12/01 11:54:59;;;;;;;9.32;5.65;;;5.40;27.60;;;;;;5109742;28;20456;-60
2022/12/01 11:57:30;;;;;;;11.50;6.20;;;5.60;7.70;;;;;;5113050;28;20872;-59
2022/12/01 11:59:57;;;;;;;9.00;5.53;;;5.70;1.00;;;;;;5113491;28;20728;-60
2022/12/01 12:02:35;;;;;;;9.70;5.60;;;5.40;5.10;;;;;;5106780;28;20432;-60
2022/12/01 12:05:26;;;;;;;9.60;6.40;;;5.50;26.50;;;;;;5107149;28;20428;-59
2022/12/01 12:08:01;;;;;;;9.82;5.88;;;5.60;3.80;;;;;;5113092;28;20454;-59
2022/12/01 12:10:39;;;;;;;11.20;5.93;;;5.70;12.90;;;;;;5100642;28;20690;-59
2022/12/01 12:13:17;;;;;;;10.50;6.82;;;5.80;17.00;;;;;;5094686;28;20428;-59
2022/12/01 12:15:54;;;;;;;7.97;5.50;;;5.80;1.00;;;;;;5099987;28;20540;-60
2022/12/01 12:18:40;;;;;;;8.88;4.93;;;5.90;1.00;;;;;;5097332;28;20501;-60
2022/12/01 12:21:20;;;;;;;8.85;5.93;;;5.90;1.00;;;;;;5100202;28;20420;-60
2022/12/01 12:24:17;;;;;;;10.90;5.43;;;6.00;1.00;;;;;;5097929;28;20734;-61
2022/12/01 12:26:51;;;;;;;15.32;8.98;;;6.10;1.00;;;;;;5100794;28;20471;-60
2022/12/01 12:29:33;;;;;;;8.90;5.38;;;6.00;1.00;;;;;;5093796;28;20414;-61
2022/12/01 12:32:13;;;;;;;10.32;5.13;;;6.00;1.00;;;;;;5099965;28;20770;-60
2022/12/01 12:34:49;;;;;;;7.70;4.45;;;5.90;1.00;;;;;;5114383;28;20867;-61
2022/12/01 12:37:22;;;;;;;9.68;5.28;;;5.90;1.00;;;;;;5095733;28;20422;-60
2022/12/01 12:40:22;;;;;;;10.23;5.57;;;6.00;1.00;;;;;;5112966;28;20434;-60
2022/12/01 12:43:02;;;;;;;9.02;5.65;;;5.80;1.00;;;;;;5094153;28;20713;-60
2022/12/01 12:45:42;;;;;;;11.95;6.38;;;5.80;1.50;;;;;;5094225;28;20845;-60
2022/12/01 12:48:18;;;;;;;10.57;6.40;;;5.90;1.00;;;;;;5112170;28;20432;-59
2022/12/01 12:50:53;;;;;;;13.32;6.07;;;6.00;1.00;;;;;;5098717;28;20448;-59
2022/12/01 12:53:25;;;;;;;9.38;5.75;;;6.00;1.00;;;;;;5091876;28;20520;-59
2022/12/01 12:55:58;;;;;;;8.30;5.60;;;6.00;1.00;;;;;;5100938;28;20751;-59
2022/12/01 12:58:29;;;;;;;9.57;5.90;;;6.10;1.00;;;;;;5107273;28;20508;-59
2022/12/01 13:01:01;;;;;;;10.75;6.20;;;6.10;1.00;;;;;;5108972;28;20434;-59
2022/12/01 13:03:38;;;;;;;10.33;6.03;;;6.10;1.00;;;;;;5092945;28;20461;-60
2022/12/01 13:06:09;;;;;;;11.35;6.30;;;5.90;1.00;;;;;;5095434;28;20539;-59
2022/12/01 13:08:42;;;;;;;10.10;5.85;;;5.60;1.00;;;;;;5098108;28;20436;-59
2022/12/01 13:11:16;;;;;;;9.65;5.15;;;5.70;6.90;;;;;;5112684;28;20446;-59
2022/12/01 13:13:58;;;;;;;8.40;4.90;;;5.90;6.20;;;;;;5110964;28;20434;-60
2022/12/01 13:16:31;;;;;;;9.82;5.85;;;5.90;1.00;;;;;;5103259;28;20924;-60
2022/12/01 13:19:04;;;;;;;12.65;7.03;;;6.00;1.00;;;;;;5104505;28;20416;-60